Salina, KS (67401)

7:49 PM CST on February 06, 2016 (GMT -0600)
Stegall's Oasis | | Change Station
CLOSE
Current Station
Personal Weather Station
Location: Salina, KS
Elevation: 1247 ft
Nearby Weather Stations

Elev 1247 ft 38.82 °N, 97.63 °W | Updated 14 minutes ago

Clear
Clear
42.4 °F
Feels Like 42 °F
N
2.2
Wind Variable Wind from ESE

Today
High -- | Low -- °F
--% Chance of Precip.
Yesterday
High -- | Low -- °F
Precip. -- in
Pressure 30.16 in
Visibility 10.0 miles
Clouds Clear
Windchill 42 °F
Dew Point 25 °F
Humidity 49%
Rainfall 0.00 in
Snow Depth Not available.
7:32 AM 5:57 PM
Waning Crescent, 3% visible
METAR KSLN 070053Z 19009KT 10SM CLR 05/M04 A3013 RMK AO2 SLP212 T00501044
Pressure 30.16 in
Visibility 10.0 miles
Clouds Clear
Windchill 42 °F
Dew Point 25 °F
Humidity 49%
Rainfall 0.00 in
Snow Depth Not available.
7:32 AM 5:57 PM
Waning Crescent, 3% visible
METAR KSLN 070053Z 19009KT 10SM CLR 05/M04 A3013 RMK AO2 SLP212 T00501044

10-Day Weather Forecast

Almanac

Astronomy

Feb. 06, 2016 Rise Set
Actual Time
Civil Twilight
Nautical Twilight
Astronomical Twilight
Moon
Length of Visible Light
Length of Day
Tomorrow will be .
, % of the Moon is Illuminated

Today's Extremes

State Highs State Lows

Community

WunderPhotos

Upload Photos

1,891,123 photos uploaded!

WunderBlog® & News

Nearby

Air Quality

  Air Quality AQ Index Pollutant
Not available.

Snow Depth

Station Depth Elevation

Earthquake Activity

City Distance Mag. Time & Date
Minimum magnitude displayed is 2.5.

Coastal Water Temperatures

Place Temperature

Stations

Nearby Weather Stations

Station Location Temp. Windchill Dew Point Humidity Wind Precip. Elev Updated Type
                   

Watches & Warnings

There are currently no watches in effect.